createdAt,value
2017-04-21T00:00:39.182Z,56.13
2017-04-21T00:01:19.698Z,56.23
2017-04-21T00:02:00.311Z,56.32
2017-04-21T00:02:41.412Z,56.23
2017-04-21T00:03:22.010Z,56.32
2017-04-21T00:04:02.510Z,56.32
2017-04-21T00:04:43.224Z,56.89
2017-04-21T00:05:23.830Z,56.99
2017-04-21T00:06:04.399Z,56.51
2017-04-21T00:06:44.904Z,56.32
2017-04-21T00:07:30.456Z,56.32
2017-04-21T00:08:11.031Z,56.13
2017-04-21T00:08:51.640Z,56.51
2017-04-21T00:09:32.180Z,56.99
2017-04-21T00:10:13.792Z,56.8
2017-04-21T00:10:54.381Z,56.7
2017-04-21T00:11:35.060Z,56.7
2017-04-21T00:12:15.572Z,56.61
2017-04-21T00:12:56.215Z,56.89
2017-04-21T00:13:36.786Z,57.09
2017-04-21T00:14:17.983Z,57.18
2017-04-21T00:14:58.577Z,57.18
2017-04-21T00:15:39.183Z,57.09
2017-04-21T00:16:19.802Z,57.09
2017-04-21T00:17:00.419Z,57.37
2017-04-21T00:17:41.963Z,57.28
2017-04-21T00:18:22.491Z,57.75
2017-04-21T00:19:09.021Z,57.56
2017-04-21T00:19:49.571Z,57.46
2017-04-21T00:20:31.184Z,57.94
2017-04-21T00:21:12.732Z,57.94
2017-04-21T00:21:53.388Z,58.13
2017-04-21T00:22:34.990Z,58.13
2017-04-21T00:23:16.629Z,58.41
2017-04-21T00:23:58.250Z,58.03
2017-04-21T00:24:38.859Z,57.94
2017-04-21T00:25:20.411Z,57.94
2017-04-21T00:26:00.987Z,58.41
2017-04-21T00:26:41.634Z,58.32
2017-04-21T00:27:22.183Z,58.51
2017-04-21T00:28:02.742Z,58.61
2017-04-21T00:28:43.294Z,58.61
2017-04-21T00:29:26.980Z,58.41
2017-04-21T00:30:07.539Z,58.32
2017-04-21T00:30:48.205Z,58.32
2017-04-21T00:31:29.778Z,58.32
2017-04-21T00:32:10.319Z,58.32
2017-04-21T00:32:50.871Z,58.22
2017-04-21T00:33:31.423Z,58.32
2017-04-21T00:34:11.985Z,58.13
2017-04-21T00:34:53.615Z,58.32
2017-04-21T00:35:34.195Z,58.22
2017-04-21T00:36:14.717Z,58.61
2017-04-21T00:36:56.346Z,58.8
2017-04-21T00:37:36.929Z,58.41
2017-04-21T00:38:17.533Z,58.61
2017-04-21T00:38:58.057Z,58.89
2017-04-21T00:39:38.634Z,58.89
2017-04-21T00:40:19.234Z,58.76
2017-04-21T00:41:01.883Z,59.14
2017-04-21T00:41:42.410Z,59.05
2017-04-21T00:42:23.010Z,59.24
2017-04-21T00:43:03.619Z,59.24
2017-04-21T00:43:44.182Z,59.14
2017-04-21T00:44:24.711Z,59.24
2017-04-21T00:45:06.306Z,59.43
2017-04-21T00:45:47.927Z,59.62
2017-04-21T00:46:28.558Z,59.71
2017-04-21T00:47:09.090Z,60
2017-04-21T00:47:49.636Z,60.38
2017-04-21T00:48:30.243Z,60.28
2017-04-21T00:49:10.820Z,60.28
2017-04-21T00:49:51.347Z,60.47
2017-04-21T00:50:31.962Z,60.57
2017-04-21T00:51:12.548Z,60.57
2017-04-21T00:51:53.143Z,60.57
2017-04-21T00:52:33.674Z,60.76
2017-04-21T00:53:15.292Z,60.85
2017-04-21T00:53:55.879Z,61.04
2017-04-21T00:54:36.475Z,61.23
2017-04-21T00:55:17.002Z,61.42
2017-04-21T00:55:58.627Z,61.42
2017-04-21T00:56:39.206Z,61.42
2017-04-21T00:57:19.836Z,61.23
2017-04-21T00:58:00.351Z,61.14
2017-04-21T00:58:40.935Z,61.71
2017-04-21T00:59:21.503Z,61.8
2017-04-21T01:00:03.041Z,61.8
2017-04-21T01:00:48.517Z,61.8
2017-04-21T01:01:29.608Z,61.8
2017-04-21T01:02:10.250Z,61.61
2017-04-21T01:02:50.879Z,61.9
2017-04-21T01:03:31.537Z,61.71
2017-04-21T01:04:12.181Z,61.8
2017-04-21T01:04:52.764Z,61.9
2017-04-21T01:05:33.361Z,61.8
2017-04-21T01:06:13.883Z,61.61
2017-04-21T01:06:54.463Z,61.61
2017-04-21T01:07:35.051Z,61.71
2017-04-21T01:08:15.655Z,61.8
2017-04-21T01:08:56.178Z,61.61
2017-04-21T01:09:36.769Z,62.27
2017-04-21T01:10:17.339Z,61.9
2017-04-21T01:10:57.870Z,61.9
2017-04-21T01:11:38.448Z,61.9
2017-04-21T01:12:19.076Z,61.8
2017-04-21T01:12:59.640Z,61.71
2017-04-21T01:13:40.272Z,61.9
2017-04-21T01:14:20.821Z,62.27
2017-04-21T01:15:01.376Z,61.99
2017-04-21T01:15:41.935Z,62.27
2017-04-21T01:16:22.496Z,61.99
2017-04-21T01:17:03.025Z,62.27
2017-04-21T01:17:43.581Z,62.37
2017-04-21T01:18:24.125Z,62.18
2017-04-21T01:19:04.699Z,62.08
2017-04-21T01:19:45.248Z,62.18
2017-04-21T01:20:25.773Z,62.27
2017-04-21T01:21:06.329Z,62.08
2017-04-21T01:21:46.884Z,62.18
2017-04-21T01:22:27.452Z,62.46
2017-04-21T01:23:07.992Z,62.46
2017-04-21T01:23:48.533Z,62.85
2017-04-21T01:24:29.082Z,62.75
2017-04-21T01:25:09.688Z,62.66
2017-04-21T01:25:51.300Z,62.56
2017-04-21T01:26:31.795Z,62.66
2017-04-21T01:27:12.421Z,62.66
2017-04-21T01:27:53.014Z,62.56
2017-04-21T01:28:33.604Z,63.04
2017-04-21T01:29:14.134Z,62.94
2017-04-21T01:29:54.714Z,62.94
2017-04-21T01:30:35.279Z,62.94
2017-04-21T01:31:15.815Z,63.13
2017-04-21T01:31:56.370Z,63.23
2017-04-21T01:32:37.940Z,63.32
2017-04-21T01:33:18.517Z,63.32
2017-04-21T01:33:59.105Z,63.51
2017-04-21T01:34:39.690Z,63.51
2017-04-21T01:35:20.240Z,63.51
2017-04-21T01:36:00.829Z,63.51
2017-04-21T01:36:41.350Z,63.42
2017-04-21T01:37:21.917Z,63.39
2017-04-21T01:38:02.464Z,63.48
2017-04-21T01:38:43.095Z,63.95
2017-04-21T01:39:23.664Z,63.95
2017-04-21T01:40:04.302Z,64.14
2017-04-21T01:40:44.831Z,64.05
2017-04-21T01:41:25.439Z,63.95
2017-04-21T01:42:05.948Z,64.24
2017-04-21T01:42:46.458Z,64.05
2017-04-21T01:43:27.085Z,64.33
2017-04-21T01:44:07.705Z,64.62
2017-04-21T01:44:48.220Z,64.52
2017-04-21T01:45:28.826Z,64.52
2017-04-21T01:46:09.455Z,64.62
2017-04-21T01:46:49.996Z,64.62
2017-04-21T01:47:30.579Z,64.71
2017-04-21T01:48:11.219Z,64.71
2017-04-21T01:48:51.728Z,64.62
2017-04-21T01:49:32.343Z,64.71
2017-04-21T01:50:12.907Z,64.62
2017-04-21T01:50:53.532Z,64.62
2017-04-21T01:51:34.084Z,64.24
2017-04-21T01:52:14.640Z,64.43
2017-04-21T01:52:55.176Z,64.52
2017-04-21T01:53:35.751Z,64.62
2017-04-21T01:54:17.112Z,64.71
2017-04-21T01:54:57.683Z,64.62
2017-04-21T01:55:38.324Z,64.52
2017-04-21T01:56:18.852Z,64.46
2017-04-21T01:56:59.404Z,64.46
2017-04-21T01:57:39.943Z,64.62
2017-04-21T01:58:20.522Z,64.43
2017-04-21T01:59:01.066Z,64.43
2017-04-21T01:59:41.615Z,64.75
2017-04-21T02:00:22.191Z,64.75
2017-04-21T02:01:02.795Z,64.75
2017-04-21T02:01:43.316Z,64.75
2017-04-21T02:02:24.125Z,64.75
2017-04-21T02:03:04.618Z,64.75
2017-04-21T02:03:45.205Z,64.75
2017-04-21T02:04:26.413Z,64.75
2017-04-21T02:05:07.053Z,64.75
2017-04-21T02:05:47.609Z,64.75
2017-04-21T02:06:28.154Z,64.75
2017-04-21T02:07:08.697Z,64.27
2017-04-21T02:07:49.294Z,64.75
2017-04-21T02:08:29.895Z,64.75
2017-04-21T02:09:10.459Z,64.56
2017-04-21T02:09:51.001Z,64.75
2017-04-21T02:10:31.532Z,64.65
2017-04-21T02:11:12.084Z,64.65
2017-04-21T02:11:52.660Z,64.75
2017-04-21T02:12:33.206Z,64.65
2017-04-21T02:13:13.773Z,64.56
2017-04-21T02:13:54.397Z,64.75
2017-04-21T02:14:34.958Z,64.56
2017-04-21T02:15:15.514Z,64.75
2017-04-21T02:15:56.158Z,64.56
2017-04-21T02:16:36.734Z,64.75
2017-04-21T02:17:17.387Z,64.75
2017-04-21T02:17:58.044Z,64.75
2017-04-21T02:18:38.676Z,64.84
2017-04-21T02:19:19.224Z,64.37
2017-04-21T02:19:59.821Z,64.46
2017-04-21T02:20:40.402Z,64.46
2017-04-21T02:21:20.926Z,64.46
2017-04-21T02:22:01.522Z,64.46
2017-04-21T02:22:42.122Z,64.46
2017-04-21T02:23:22.704Z,65.03
2017-04-21T02:24:03.236Z,64.65
2017-04-21T02:24:43.838Z,65.03
2017-04-21T02:25:24.363Z,64.84
2017-04-21T02:26:04.910Z,64.84
2017-04-21T02:26:45.487Z,64.84
2017-04-21T02:27:26.115Z,65.12
2017-04-21T02:28:06.644Z,65.22
2017-04-21T02:28:47.252Z,65.22
2017-04-21T02:29:27.871Z,65.12
2017-04-21T02:30:08.424Z,65.31
2017-04-21T02:30:48.969Z,65.12
2017-04-21T02:31:29.517Z,65.31
2017-04-21T02:32:10.072Z,65.31
2017-04-21T02:32:50.629Z,65.12
2017-04-21T02:33:31.169Z,65.12
2017-04-21T02:34:11.719Z,65.12
2017-04-21T02:34:52.261Z,65.03
2017-04-21T02:35:32.866Z,65.12
2017-04-21T02:36:13.426Z,65.03
2017-04-21T02:36:54.023Z,65.12
2017-04-21T02:37:34.536Z,65.12
2017-04-21T02:38:15.209Z,65.31
2017-04-21T02:38:55.750Z,65.22
2017-04-21T02:39:36.334Z,65.22
2017-04-21T02:40:16.868Z,65.31
2017-04-21T02:40:57.437Z,65.41
2017-04-21T02:41:38.011Z,65.22
2017-04-21T02:42:18.563Z,64.94
2017-04-21T02:42:59.109Z,64.84
2017-04-21T02:43:39.672Z,64.75
2017-04-21T02:44:20.202Z,64.94
2017-04-21T02:45:00.736Z,65.12
2017-04-21T02:45:41.252Z,64.84
2017-04-21T02:46:21.848Z,64.84
2017-04-21T02:47:02.385Z,65.12
2017-04-21T02:47:42.905Z,65.12
2017-04-21T02:48:23.512Z,65.12
2017-04-21T02:49:04.059Z,65.03
2017-04-21T02:49:44.575Z,65.22
2017-04-21T02:50:25.161Z,65.03
2017-04-21T02:51:06.735Z,65.12
2017-04-21T02:51:47.283Z,64.46
2017-04-21T02:52:27.835Z,64.56
2017-04-21T02:53:08.389Z,64.75
2017-04-21T02:53:48.935Z,64.46
2017-04-21T02:54:29.495Z,64.75
2017-04-21T02:55:10.051Z,64.56
2017-04-21T02:55:50.586Z,64.46
2017-04-21T02:56:31.162Z,64.65
2017-04-21T02:57:11.678Z,64.56
2017-04-21T02:57:52.264Z,64.56
2017-04-21T02:58:32.802Z,64.46
2017-04-21T02:59:14.366Z,64.46
2017-04-21T02:59:54.916Z,64.46
2017-04-21T03:00:35.463Z,64.46
2017-04-21T03:01:16.834Z,64.46
2017-04-21T03:01:57.396Z,64.46
2017-04-21T03:02:37.944Z,64.46
2017-04-21T03:03:18.488Z,64.75
2017-04-21T03:03:59.052Z,64.75
2017-04-21T03:04:40.611Z,64.65
2017-04-21T03:05:21.159Z,64.65
2017-04-21T03:06:01.714Z,64.65
2017-04-21T03:06:42.262Z,64.46
2017-04-21T03:07:22.816Z,64.37
2017-04-21T03:08:03.365Z,64.56
2017-04-21T03:08:43.928Z,64.75
2017-04-21T03:09:24.457Z,64.65
2017-04-21T03:10:05.014Z,64.75
2017-04-21T03:10:45.571Z,64.65
2017-04-21T03:11:26.136Z,64.65
2017-04-21T03:12:07.693Z,64.75
2017-04-21T03:12:48.242Z,64.65
2017-04-21T03:13:28.828Z,64.56
2017-04-21T03:14:09.445Z,64.56
2017-04-21T03:14:50.023Z,64.56
2017-04-21T03:15:30.652Z,65.03
2017-04-21T03:16:11.187Z,64.65
2017-04-21T03:16:51.803Z,64.65
2017-04-21T03:17:32.417Z,64.75
2017-04-21T03:18:12.967Z,64.65
2017-04-21T03:18:53.503Z,64.65
2017-04-21T03:19:34.056Z,64.65
2017-04-21T03:20:14.618Z,64.75
2017-04-21T03:20:55.179Z,64.75
2017-04-21T03:21:36.802Z,64.75
2017-04-21T03:22:17.397Z,64.75
2017-04-21T03:22:57.945Z,64.56
2017-04-21T03:23:38.504Z,64.27
2017-04-21T03:24:19.080Z,64.37
2017-04-21T03:24:59.688Z,64.46
2017-04-21T03:25:40.248Z,64.56
2017-04-21T03:26:20.803Z,64.46
2017-04-21T03:27:02.379Z,64.56
2017-04-21T03:27:42.929Z,64.46
2017-04-21T03:28:23.474Z,64.56
2017-04-21T03:29:04.028Z,64.46
2017-04-21T03:29:44.577Z,64.37
2017-04-21T03:30:25.163Z,64.75
2017-04-21T03:31:05.674Z,64.65
2017-04-21T03:31:46.218Z,64.65
2017-04-21T03:32:26.862Z,64.56
2017-04-21T03:33:07.377Z,64.84
2017-04-21T03:33:47.983Z,64.94
2017-04-21T03:34:28.569Z,64.94
2017-04-21T03:35:09.110Z,64.75
2017-04-21T03:35:49.664Z,64.65
2017-04-21T03:36:30.212Z,64.65
2017-04-21T03:37:10.801Z,64.65
2017-04-21T03:37:51.312Z,64.65
2017-04-21T03:38:32.037Z,64.56
2017-04-21T03:39:12.628Z,64.75
2017-04-21T03:39:53.187Z,64.65
2017-04-21T03:40:33.788Z,64.94
2017-04-21T03:41:14.350Z,64.65
2017-04-21T03:41:55.039Z,64.94
2017-04-21T03:42:35.646Z,64.65
2017-04-21T03:43:16.191Z,64.65
2017-04-21T03:43:56.747Z,64.94
2017-04-21T03:44:37.315Z,64.94
2017-04-21T03:45:17.885Z,64.65
2017-04-21T03:45:58.479Z,64.46
2017-04-21T03:46:39.016Z,64.75
2017-04-21T03:47:19.601Z,64.84
2017-04-21T03:48:00.188Z,64.84
2017-04-21T03:48:40.803Z,64.65
2017-04-21T03:49:21.317Z,64.56
2017-04-21T03:50:01.908Z,64.56
2017-04-21T03:50:42.456Z,64.75
2017-04-21T03:51:23.002Z,64.56
2017-04-21T03:52:03.557Z,64.56
2017-04-21T03:52:44.105Z,63.98
2017-04-21T03:53:24.643Z,64.65
2017-04-21T03:54:05.209Z,64.27
2017-04-21T03:54:45.783Z,64.37
2017-04-21T03:55:26.309Z,64.56
2017-04-21T03:56:06.870Z,64.46
2017-04-21T03:56:47.406Z,64.56
2017-04-21T03:57:27.960Z,64.65
2017-04-21T03:58:08.509Z,64.46
2017-04-21T03:58:49.087Z,64.56
2017-04-21T03:59:29.611Z,64.37
2017-04-21T04:00:10.189Z,64.37
2017-04-21T04:00:50.831Z,64.65
2017-04-21T04:01:31.369Z,64.37
2017-04-21T04:02:11.962Z,64.46
2017-04-21T04:02:52.568Z,64.46
2017-04-21T04:03:33.094Z,64.46
2017-04-21T04:04:13.690Z,64.75
2017-04-21T04:04:54.242Z,64.75
2017-04-21T04:05:34.765Z,64.65
2017-04-21T04:06:15.320Z,64.65
2017-04-21T04:06:55.891Z,64.65
2017-04-21T04:07:36.448Z,64.65
2017-04-21T04:08:17.076Z,64.46
2017-04-21T04:08:57.639Z,64.94
2017-04-21T04:09:38.189Z,64.65
2017-04-21T04:10:18.777Z,64.75
2017-04-21T04:10:59.378Z,64.56
2017-04-21T04:11:39.887Z,64.65
2017-04-21T04:12:20.501Z,64.75
2017-04-21T04:13:01.081Z,64.46
2017-04-21T04:13:41.672Z,64.46
2017-04-21T04:14:22.190Z,64.65
2017-04-21T04:15:03.819Z,64.37
2017-04-21T04:15:44.412Z,65.03
2017-04-21T04:16:25.021Z,65.03
2017-04-21T04:17:05.532Z,65.03
2017-04-21T04:17:46.116Z,65.12
2017-04-21T04:18:26.734Z,64.94
2017-04-21T04:19:07.323Z,64.75
2017-04-21T04:19:47.847Z,64.84
2017-04-21T04:20:28.549Z,65.44
2017-04-21T04:21:09.113Z,64.78
2017-04-21T04:21:49.711Z,65.31
2017-04-21T04:22:30.293Z,65.22
2017-04-21T04:23:10.929Z,65.31
2017-04-21T04:23:51.509Z,65.16
2017-04-21T04:24:32.114Z,65.06
2017-04-21T04:25:12.681Z,65.5
2017-04-21T04:25:53.217Z,65.5
2017-04-21T04:26:33.768Z,65.31
2017-04-21T04:27:14.316Z,65.5
2017-04-21T04:27:54.883Z,65.22
2017-04-21T04:28:35.426Z,65.31
2017-04-21T04:29:15.973Z,65.6
2017-04-21T04:29:56.482Z,65.41
2017-04-21T04:30:38.142Z,65.35
2017-04-21T04:31:18.757Z,65.44
2017-04-21T04:31:59.268Z,65.44
2017-04-21T04:32:39.918Z,65.35
2017-04-21T04:33:20.498Z,65.22
2017-04-21T04:34:01.017Z,65.31
2017-04-21T04:34:41.632Z,65.25
2017-04-21T04:35:22.259Z,65.35
2017-04-21T04:36:02.779Z,65.22
2017-04-21T04:36:43.393Z,65.22
2017-04-21T04:37:23.904Z,65.41
2017-04-21T04:38:04.434Z,65.22
2017-04-21T04:38:45.026Z,65.31
2017-04-21T04:39:25.671Z,65.22
2017-04-21T04:40:06.212Z,65.25
2017-04-21T04:40:47.803Z,65.22
2017-04-21T04:41:28.397Z,65.22
2017-04-21T04:42:08.989Z,65.25
2017-04-21T04:42:49.507Z,65.25
2017-04-21T04:43:30.091Z,65.63
2017-04-21T04:44:10.694Z,65.54
2017-04-21T04:44:51.313Z,65.73
2017-04-21T04:45:31.845Z,65.63
2017-04-21T04:46:12.401Z,65.63
2017-04-21T04:46:52.941Z,65.54
2017-04-21T04:47:33.501Z,65.73
2017-04-21T04:48:14.057Z,65.73
2017-04-21T04:48:54.603Z,65.73
2017-04-21T04:49:35.170Z,65.63
2017-04-21T04:50:15.697Z,65.54
2017-04-21T04:50:56.267Z,65.63
2017-04-21T04:51:36.798Z,65.73
2017-04-21T04:52:17.370Z,65.73
2017-04-21T04:52:57.913Z,65.73
2017-04-21T04:53:38.503Z,65.63
2017-04-21T04:54:19.103Z,65.73
2017-04-21T04:54:59.624Z,65.06
2017-04-21T04:55:40.231Z,65.25
2017-04-21T04:56:20.946Z,65.35
2017-04-21T04:57:01.509Z,65.35
2017-04-21T04:57:42.053Z,65.25
2017-04-21T04:58:22.623Z,65.44
2017-04-21T04:59:03.232Z,65.06
2017-04-21T04:59:43.817Z,65.16
2017-04-21T05:00:24.337Z,65.63
2017-04-21T05:01:04.965Z,65.73
2017-04-21T05:01:45.566Z,65.82
2017-04-21T05:02:26.152Z,65.73
2017-04-21T05:03:06.708Z,65.82
2017-04-21T05:03:47.260Z,66.01
2017-04-21T05:04:27.777Z,66.39
2017-04-21T05:05:08.340Z,66.2
2017-04-21T05:05:48.912Z,66.01
2017-04-21T05:06:29.527Z,66.77
2017-04-21T05:07:10.491Z,66.3
2017-04-21T05:07:51.050Z,66.39
2017-04-21T05:08:31.807Z,66.77
2017-04-21T05:09:13.166Z,67.15
2017-04-21T05:09:53.744Z,67.15
2017-04-21T05:10:34.268Z,66.87
2017-04-21T05:11:14.812Z,67.06
2017-04-21T05:11:55.813Z,66.96
2017-04-21T05:12:36.959Z,67.25
2017-04-21T05:13:18.387Z,66.96
2017-04-21T05:13:58.980Z,67.15
2017-04-21T05:14:39.849Z,66.87
2017-04-21T05:15:20.719Z,66.87
2017-04-21T05:16:01.642Z,67.34
2017-04-21T05:16:42.211Z,67.34
2017-04-21T05:17:22.851Z,67.15
2017-04-21T05:18:03.590Z,67.34
2017-04-21T05:18:45.388Z,67.44
2017-04-21T05:19:25.943Z,67.34
2017-04-21T05:20:06.516Z,66.96
2017-04-21T05:20:47.055Z,67.34
2017-04-21T05:21:27.599Z,67.53
2017-04-21T05:22:08.368Z,67.44
2017-04-21T05:22:48.999Z,67.63
2017-04-21T05:23:29.669Z,67.63
2017-04-21T05:24:10.521Z,66.87
2017-04-21T05:24:51.243Z,67.72
2017-04-21T05:25:32.473Z,67.82
2017-04-21T05:26:13.653Z,67.63
2017-04-21T05:26:54.397Z,67.72
2017-04-21T05:27:35.182Z,67.72
2017-04-21T05:28:15.858Z,67.72
2017-04-21T05:28:56.601Z,67.63
2017-04-21T05:29:38.315Z,67.63
2017-04-21T05:30:18.949Z,67.72
2017-04-21T05:30:59.657Z,67.44
2017-04-21T05:31:40.341Z,67.53
2017-04-21T05:32:21.225Z,67.25
2017-04-21T05:33:01.904Z,67.53
2017-04-21T05:33:42.572Z,67.25
2017-04-21T05:34:23.089Z,66.87
2017-04-21T05:35:03.683Z,66.87
2017-04-21T05:35:44.301Z,67.63
2017-04-21T05:36:24.990Z,67.63
2017-04-21T05:37:05.560Z,67.82
2017-04-21T05:37:46.251Z,67.63
2017-04-21T05:38:26.892Z,67.72
2017-04-21T05:39:07.812Z,67.72
2017-04-21T05:39:48.363Z,67.82
2017-04-21T05:40:29.031Z,67.72
2017-04-21T05:41:09.631Z,67.72
2017-04-21T05:41:50.218Z,67.34
2017-04-21T05:42:30.733Z,67.34
2017-04-21T05:43:11.313Z,66.87
2017-04-21T05:43:51.918Z,67.34
2017-04-21T05:44:32.506Z,67.34
2017-04-21T05:45:13.022Z,67.34
2017-04-21T05:45:53.670Z,67.25
2017-04-21T05:46:34.309Z,67.44
2017-04-21T05:47:14.813Z,67.06
2017-04-21T05:47:55.433Z,67.06
2017-04-21T05:48:41.798Z,67.06
2017-04-21T05:49:22.547Z,66.87
2017-04-21T05:50:14.277Z,66.96
2017-04-21T05:51:01.599Z,67.06
2017-04-21T05:51:44.293Z,67.25
2017-04-21T05:52:36.609Z,66.87
2017-04-21T05:53:29.138Z,66.77
2017-04-21T05:54:10.743Z,66.3
2017-04-21T05:54:53.427Z,66.52
2017-04-21T05:55:35.160Z,66.39
2017-04-21T05:56:16.858Z,66.52
2017-04-21T05:56:57.385Z,66.52
2017-04-21T05:57:44.733Z,66.61
2017-04-21T06:53:46.801Z,63.32
2017-04-21T06:54:27.513Z,62.75
2017-04-21T06:55:08.183Z,62.65
2017-04-21T06:56:00.415Z,62.69
2017-04-21T06:56:42.134Z,62.49
2017-04-21T06:57:22.699Z,62.21
2017-04-21T06:58:03.246Z,62.02
2017-04-21T06:58:43.752Z,61.93
2017-04-21T06:59:26.587Z,62.21
2017-04-21T07:00:08.223Z,61.83
2017-04-21T07:00:48.795Z,62.12
2017-04-21T07:01:29.569Z,61.93
2017-04-21T07:02:10.219Z,61.26
2017-04-21T07:02:50.728Z,61.26
2017-04-21T07:03:31.448Z,61.64
2017-04-21T07:04:12.011Z,61.26
2017-04-21T07:04:52.588Z,60.91
2017-04-21T07:05:33.198Z,61
2017-04-21T07:06:18.558Z,60.88
2017-04-21T07:06:59.282Z,60.72
2017-04-21T07:07:39.944Z,60.63
2017-04-21T07:08:20.541Z,60.44
2017-04-21T07:09:02.302Z,59.96
2017-04-21T07:09:48.288Z,59.96
2017-04-21T07:10:30.238Z,60.24
2017-04-21T07:11:10.881Z,60.34
2017-04-21T07:11:51.544Z,60.05
2017-04-21T07:12:32.311Z,59.77
2017-04-21T07:13:14.998Z,59.77
2017-04-21T07:17:26.869Z,59.77
2017-04-21T07:18:07.571Z,59.86
2017-04-21T07:18:49.437Z,59.58
2017-04-21T07:19:31.127Z,59.58
2017-04-21T07:20:12.492Z,59.96
2017-04-21T07:21:04.926Z,59.48
2017-04-21T07:21:45.458Z,59.58
2017-04-21T07:22:26.111Z,59.48
2017-04-21T07:23:06.782Z,59.48
2017-04-21T07:23:47.300Z,59.48
2017-04-21T07:24:28.006Z,59.29
2017-04-21T07:25:08.646Z,59.1
2017-04-21T07:26:00.461Z,59.2
2017-04-21T07:26:45.913Z,59.1
2017-04-21T07:27:28.620Z,59.01
2017-04-21T07:39:43.402Z,58.62
2017-04-21T07:40:24.529Z,58.44
2017-04-21T07:41:06.802Z,58.44
2017-04-21T07:41:48.522Z,58.25
2017-04-21T07:42:29.251Z,57.87
2017-04-21T07:43:09.927Z,57.77
2017-04-21T07:43:52.605Z,57.77
2017-04-21T07:44:35.450Z,57.67
2017-04-21T07:45:21.814Z,57.58
2017-04-21T07:46:13.302Z,57.48
2017-04-21T07:46:58.884Z,57.58
2017-04-21T07:47:39.579Z,57.48
2017-04-21T07:48:31.838Z,57.67
2017-04-21T07:49:17.296Z,57.58
2017-04-21T07:49:57.987Z,57.58
2017-04-21T07:50:38.611Z,57.58
2017-04-21T07:51:24.117Z,57.48
2017-04-21T07:52:04.814Z,57.48
2017-04-21T07:52:45.333Z,57.58
2017-04-21T07:53:26.970Z,57.67
2017-04-21T07:54:07.678Z,57.77
2017-04-21T07:54:49.382Z,57.87
2017-04-21T07:55:29.912Z,58.25
2017-04-21T07:56:10.599Z,58.53
2017-04-21T07:56:51.349Z,58.62
2017-04-21T07:57:32.022Z,58.62
2017-04-21T07:58:12.524Z,59.2
2017-04-21T07:58:53.204Z,59.1
2017-04-21T07:59:33.914Z,59.39
2017-04-21T08:00:15.674Z,59.48
2017-04-21T08:00:56.169Z,59.48
2017-04-21T08:01:36.900Z,59.77
2017-04-21T08:02:17.582Z,59.77
2017-04-21T08:02:58.245Z,59.96
2017-04-21T08:03:38.933Z,59.86
2017-04-21T08:04:21.583Z,60.24
2017-04-21T08:05:02.234Z,60.34
2017-04-21T08:05:42.989Z,60.53
2017-04-21T08:06:24.676Z,60.24
2017-04-21T08:07:05.183Z,60.44
2017-04-21T08:07:45.885Z,60.34
2017-04-21T08:08:27.615Z,60.44
2017-04-21T08:09:08.341Z,60.34
2017-04-21T08:09:48.867Z,60.85
2017-04-21T08:10:35.346Z,60.56
2017-04-21T08:11:17.070Z,60.75
2017-04-21T08:11:58.729Z,60.85
2017-04-21T08:12:52.371Z,61.7
2017-04-21T08:13:33.036Z,61.96
2017-04-21T08:14:15.743Z,61.67
2017-04-21T08:14:56.387Z,62.24
2017-04-21T08:15:39.095Z,61.96
2017-04-21T08:16:19.792Z,62.43
2017-04-21T08:17:01.404Z,62.37
2017-04-21T08:17:41.921Z,62.91
2017-04-21T08:18:23.649Z,63.1
2017-04-21T08:19:06.393Z,63.01
2017-04-21T08:19:52.003Z,63.13
2017-04-21T08:20:32.508Z,63.42
2017-04-21T08:21:14.241Z,63.67
2017-04-21T08:21:55.930Z,63.67
2017-04-21T08:22:37.600Z,63.86
2017-04-21T08:23:20.305Z,63.76
2017-04-21T08:24:07.810Z,63.8
2017-04-21T08:24:48.464Z,63.6
2017-04-21T08:25:29.202Z,64.28
2017-04-21T08:26:11.920Z,63.99
2017-04-21T08:26:59.356Z,63.6
2017-04-21T08:27:41.331Z,63.8
2017-04-21T08:28:22.081Z,63.89
2017-04-21T08:29:03.750Z,63.8
2017-04-21T08:29:44.400Z,63.7
2017-04-21T08:30:26.099Z,63.89
2017-04-21T08:31:07.890Z,63.8
2017-04-21T08:31:50.430Z,64.28
2017-04-21T08:32:31.433Z,64.18
2017-04-21T08:33:13.077Z,64.18
2017-04-21T08:33:53.796Z,64.18
2017-04-21T08:34:40.011Z,64.08
2017-04-21T08:35:20.627Z,64.02
2017-04-21T08:36:01.339Z,64.18
2017-04-21T08:36:43.010Z,64.02
2017-04-21T08:37:23.528Z,64.69
2017-04-21T08:38:04.114Z,64.65
2017-04-21T08:38:44.999Z,64.21
2017-04-21T08:39:25.520Z,64.12
2017-04-21T08:40:08.244Z,63.83
2017-04-21T08:40:59.413Z,63.64
2017-04-21T08:41:40.229Z,63.29
2017-04-21T08:42:22.314Z,63.1
2017-04-21T08:43:03.125Z,62.91
2017-04-21T08:43:44.868Z,63
2017-04-21T08:44:28.387Z,62.72
2017-04-21T08:45:14.774Z,62.43
2017-04-21T08:45:56.884Z,62.52
2017-04-21T08:46:38.558Z,62.72
2017-04-21T08:47:19.682Z,62.52
2017-04-21T08:48:00.228Z,62.24
2017-04-21T08:48:42.886Z,62.15
2017-04-21T08:49:23.401Z,62.34
2017-04-21T08:50:03.987Z,62.62
2017-04-21T08:50:45.599Z,62.72
2017-04-21T08:51:26.171Z,62.34
2017-04-21T08:52:06.795Z,62.81
2017-04-21T08:52:48.479Z,62.62
2017-04-21T08:53:30.065Z,62.81
2017-04-21T08:54:23.509Z,63.17
2017-04-21T08:55:04.119Z,63.2
2017-04-21T08:55:45.831Z,63.64
2017-04-21T08:56:28.482Z,63.54
2017-04-21T08:57:09.033Z,63.57
2017-04-21T08:57:49.653Z,63.73
2017-04-21T08:58:34.765Z,63.73
2017-04-21T08:59:15.549Z,63.73
2017-04-21T08:59:56.220Z,63.83
2017-04-21T09:00:36.823Z,63.73
2017-04-21T09:01:18.410Z,64.21
2017-04-21T09:01:59.957Z,64.31
2017-04-21T09:02:41.530Z,64.59
2017-04-21T09:03:22.121Z,64.4
2017-04-21T09:04:02.829Z,64.4
2017-04-21T09:04:43.813Z,64.4
2017-04-21T09:05:29.556Z,64.31
2017-04-21T09:06:10.599Z,64.21
2017-04-21T09:06:52.219Z,64.4
2017-04-21T09:07:39.732Z,64.31
2017-04-21T09:08:21.314Z,64.5
2017-04-21T09:09:07.135Z,64.5
2017-04-21T09:09:50.507Z,64.69
2017-04-21T09:10:30.843Z,63.99
2017-04-21T09:11:14.113Z,63.99
2017-04-21T09:12:01.626Z,64.21
2017-04-21T09:12:42.148Z,64.12
2017-04-21T09:13:24.088Z,64.4
2017-04-21T09:14:10.716Z,64.21
2017-04-21T09:14:51.640Z,64.31
2017-04-21T09:15:33.392Z,64.69
2017-04-21T09:16:19.987Z,64.69
2017-04-21T09:17:41.472Z,64.4
2017-04-21T09:18:22.132Z,64.5
2017-04-21T09:19:02.781Z,64.4
2017-04-21T09:19:43.408Z,64.31
2017-04-21T09:20:24.212Z,64.5
2017-04-21T09:21:05.033Z,64.21
2017-04-21T09:21:47.378Z,64.4
2017-04-21T09:22:30.181Z,64.5
2017-04-21T09:23:11.105Z,64.4
2017-04-21T09:23:52.171Z,64.4
2017-04-21T09:24:44.802Z,63.92
2017-04-21T09:25:41.039Z,64.12
2017-04-21T09:26:23.643Z,64.31
2017-04-21T09:27:10.461Z,64.12
2017-04-21T09:28:03.601Z,63.96
2017-04-21T09:28:46.177Z,63.96
2017-04-21T09:29:26.857Z,64.05
2017-04-21T09:30:22.025Z,63.76
2017-04-21T09:31:14.569Z,63.57
2017-04-21T09:31:57.156Z,63.48
2017-04-21T09:32:44.582Z,63.29
2017-04-21T09:33:25.225Z,63.2
2017-04-21T09:34:06.908Z,63.29
2017-04-21T09:34:47.551Z,63
2017-04-21T09:35:29.240Z,63.04
2017-04-21T09:36:09.749Z,63.04
2017-04-21T09:36:50.403Z,63.23
2017-04-21T09:37:36.971Z,62.65
2017-04-21T09:38:17.482Z,62.65
2017-04-21T09:38:58.096Z,62.94
2017-04-21T09:39:39.873Z,62.65
2017-04-21T09:40:20.454Z,62.75
2017-04-21T09:41:06.790Z,61.99
2017-04-21T09:41:49.449Z,62.18
2017-04-21T09:42:34.964Z,61.92
2017-04-21T09:43:15.482Z,61.25
2017-04-21T09:44:02.842Z,61.35
2017-04-21T09:44:45.482Z,60.97
2017-04-21T09:45:26.068Z,60.61
2017-04-21T09:46:06.827Z,60.42
2017-04-21T09:46:47.478Z,59.95
2017-04-21T09:47:28.140Z,59.69
2017-04-21T09:48:08.808Z,59.5
2017-04-21T09:48:49.434Z,59.22
2017-04-21T09:49:30.084Z,58.83
2017-04-21T09:50:10.752Z,58.93
2017-04-21T09:50:51.381Z,59.59
2017-04-21T09:51:32.328Z,59.31
2017-04-21T09:52:14.019Z,59.22
2017-04-21T09:52:54.549Z,59.22
2017-04-21T09:53:37.089Z,59.31
2017-04-21T09:54:24.490Z,59.31
2017-04-21T09:55:05.012Z,59.41
2017-04-21T09:55:45.608Z,59.22
2017-04-21T09:56:26.208Z,59.12
2017-04-21T09:57:11.499Z,59.31
2017-04-21T09:57:52.026Z,59.5
2017-04-21T09:58:39.287Z,59.12
2017-04-21T09:59:19.876Z,59.41
2017-04-21T10:00:01.694Z,59.31
2017-04-21T10:00:48.143Z,59.59
2017-04-21T10:01:28.987Z,59.22
2017-04-21T10:02:09.714Z,59.31
2017-04-21T10:02:50.407Z,58.76
2017-04-21T10:03:30.955Z,59.05
2017-04-21T10:04:11.626Z,58.86
2017-04-21T10:04:52.324Z,58.67
2017-04-21T10:05:33.031Z,58